sensor_id;sensor_type;location;lat;lon;timestamp;P1;durP1;ratioP1;P2;durP2;ratioP2
38399;SDS011;24180;42.676;23.320;2023-07-20T00:00:52;7.35;;;5.80;;
38399;SDS011;24180;42.676;23.320;2023-07-20T00:03:18;8.77;;;5.63;;
38399;SDS011;24180;42.676;23.320;2023-07-20T00:05:48;8.35;;;5.22;;
38399;SDS011;24180;42.676;23.320;2023-07-20T00:08:14;9.70;;;6.20;;
38399;SDS011;24180;42.676;23.320;2023-07-20T00:10:41;10.45;;;5.57;;
38399;SDS011;24180;42.676;23.320;2023-07-20T00:13:07;8.95;;;5.45;;
38399;SDS011;24180;42.676;23.320;2023-07-20T00:15:32;10.20;;;5.18;;
38399;SDS011;24180;42.676;23.320;2023-07-20T00:17:58;9.75;;;5.20;;
38399;SDS011;24180;42.676;23.320;2023-07-20T00:20:23;10.38;;;5.97;;
38399;SDS011;24180;42.676;23.320;2023-07-20T00:22:50;7.20;;;4.65;;
38399;SDS011;24180;42.676;23.320;2023-07-20T00:25:16;9.32;;;5.22;;
38399;SDS011;24180;42.676;23.320;2023-07-20T00:27:42;12.70;;;4.70;;
38399;SDS011;24180;42.676;23.320;2023-07-20T00:30:07;10.85;;;5.20;;
38399;SDS011;24180;42.676;23.320;2023-07-20T00:32:33;7.65;;;5.10;;
38399;SDS011;24180;42.676;23.320;2023-07-20T00:34:58;12.98;;;5.68;;
38399;SDS011;24180;42.676;23.320;2023-07-20T00:37:24;7.28;;;5.93;;
38399;SDS011;24180;42.676;23.320;2023-07-20T00:39:50;11.70;;;7.03;;
38399;SDS011;24180;42.676;23.320;2023-07-20T00:42:16;10.23;;;9.23;;
38399;SDS011;24180;42.676;23.320;2023-07-20T00:44:41;8.15;;;5.63;;
38399;SDS011;24180;42.676;23.320;2023-07-20T00:47:07;9.88;;;5.43;;
38399;SDS011;24180;42.676;23.320;2023-07-20T00:49:32;11.73;;;6.22;;
38399;SDS011;24180;42.676;23.320;2023-07-20T00:51:58;8.63;;;5.60;;
38399;SDS011;24180;42.676;23.320;2023-07-20T00:54:26;6.93;;;4.90;;
38399;SDS011;24180;42.676;23.320;2023-07-20T00:56:53;12.63;;;11.63;;
38399;SDS011;24180;42.676;23.320;2023-07-20T00:59:19;9.18;;;5.18;;
38399;SDS011;24180;42.676;23.320;2023-07-20T01:01:46;6.00;;;5.38;;
38399;SDS011;24180;42.676;23.320;2023-07-20T01:04:11;12.63;;;4.75;;
38399;SDS011;24180;42.676;23.320;2023-07-20T01:12:41;10.25;;;7.00;;
38399;SDS011;24180;42.676;23.320;2023-07-20T01:15:08;6.90;;;5.53;;
38399;SDS011;24180;42.676;23.320;2023-07-20T01:17:34;7.88;;;4.90;;
38399;SDS011;24180;42.676;23.320;2023-07-20T01:20:00;9.27;;;5.78;;
38399;SDS011;24180;42.676;23.320;2023-07-20T01:33:44;11.48;;;6.53;;
38399;SDS011;24180;42.676;23.320;2023-07-20T01:36:11;8.82;;;6.25;;
38399;SDS011;24180;42.676;23.320;2023-07-20T01:38:36;8.98;;;5.63;;
38399;SDS011;24180;42.676;23.320;2023-07-20T01:41:02;8.00;;;5.10;;
38399;SDS011;24180;42.676;23.320;2023-07-20T01:43:28;6.82;;;6.22;;
38399;SDS011;24180;42.676;23.320;2023-07-20T01:45:54;9.48;;;7.68;;
38399;SDS011;24180;42.676;23.320;2023-07-20T01:48:19;11.63;;;7.45;;
38399;SDS011;24180;42.676;23.320;2023-07-20T01:50:45;9.77;;;6.32;;
38399;SDS011;24180;42.676;23.320;2023-07-20T01:53:10;7.28;;;6.60;;
38399;SDS011;24180;42.676;23.320;2023-07-20T01:55:36;16.30;;;6.90;;
38399;SDS011;24180;42.676;23.320;2023-07-20T01:58:01;12.02;;;6.13;;
38399;SDS011;24180;42.676;23.320;2023-07-20T02:00:28;8.30;;;6.47;;
38399;SDS011;24180;42.676;23.320;2023-07-20T02:02:54;11.73;;;7.93;;
38399;SDS011;24180;42.676;23.320;2023-07-20T02:05:19;9.23;;;7.95;;
38399;SDS011;24180;42.676;23.320;2023-07-20T02:07:44;10.05;;;9.07;;
38399;SDS011;24180;42.676;23.320;2023-07-20T02:10:10;9.52;;;7.05;;
38399;SDS011;24180;42.676;23.320;2023-07-20T02:12:35;7.07;;;6.35;;
38399;SDS011;24180;42.676;23.320;2023-07-20T02:15:01;8.47;;;6.70;;
38399;SDS011;24180;42.676;23.320;2023-07-20T02:17:27;7.70;;;6.85;;
38399;SDS011;24180;42.676;23.320;2023-07-20T02:19:53;9.57;;;6.78;;
38399;SDS011;24180;42.676;23.320;2023-07-20T02:22:20;8.48;;;6.75;;
38399;SDS011;24180;42.676;23.320;2023-07-20T02:24:45;9.05;;;6.32;;
38399;SDS011;24180;42.676;23.320;2023-07-20T02:27:11;8.83;;;5.70;;
38399;SDS011;24180;42.676;23.320;2023-07-20T02:29:36;9.40;;;5.97;;
38399;SDS011;24180;42.676;23.320;2023-07-20T02:32:02;8.63;;;5.57;;
38399;SDS011;24180;42.676;23.320;2023-07-20T02:34:28;9.82;;;6.25;;
38399;SDS011;24180;42.676;23.320;2023-07-20T02:36:54;9.40;;;5.65;;
38399;SDS011;24180;42.676;23.320;2023-07-20T02:39:21;8.88;;;5.80;;
38399;SDS011;24180;42.676;23.320;2023-07-20T02:41:47;6.90;;;5.88;;
38399;SDS011;24180;42.676;23.320;2023-07-20T02:44:13;8.40;;;6.82;;
38399;SDS011;24180;42.676;23.320;2023-07-20T02:46:39;11.45;;;7.88;;
38399;SDS011;24180;42.676;23.320;2023-07-20T02:49:04;15.32;;;8.25;;
38399;SDS011;24180;42.676;23.320;2023-07-20T02:51:30;10.40;;;6.47;;
38399;SDS011;24180;42.676;23.320;2023-07-20T02:53:55;9.93;;;7.03;;
38399;SDS011;24180;42.676;23.320;2023-07-20T02:56:21;8.85;;;7.28;;
38399;SDS011;24180;42.676;23.320;2023-07-20T02:58:47;7.93;;;7.22;;
38399;SDS011;24180;42.676;23.320;2023-07-20T03:01:13;7.43;;;6.70;;
38399;SDS011;24180;42.676;23.320;2023-07-20T03:03:40;8.37;;;6.00;;
38399;SDS011;24180;42.676;23.320;2023-07-20T03:06:10;10.10;;;6.07;;
38399;SDS011;24180;42.676;23.320;2023-07-20T03:08:36;10.85;;;9.20;;
38399;SDS011;24180;42.676;23.320;2023-07-20T03:11:01;12.63;;;9.95;;
38399;SDS011;24180;42.676;23.320;2023-07-20T03:13:27;11.10;;;8.90;;
38399;SDS011;24180;42.676;23.320;2023-07-20T03:15:52;8.85;;;7.80;;
38399;SDS011;24180;42.676;23.320;2023-07-20T03:18:18;9.63;;;6.63;;
38399;SDS011;24180;42.676;23.320;2023-07-20T03:20:44;9.35;;;6.10;;
38399;SDS011;24180;42.676;23.320;2023-07-20T03:23:10;9.50;;;6.82;;
38399;SDS011;24180;42.676;23.320;2023-07-20T03:25:35;8.88;;;6.50;;
38399;SDS011;24180;42.676;23.320;2023-07-20T03:28:02;17.30;;;6.60;;
38399;SDS011;24180;42.676;23.320;2023-07-20T03:30:28;8.23;;;6.10;;
38399;SDS011;24180;42.676;23.320;2023-07-20T03:32:53;7.43;;;6.07;;
38399;SDS011;24180;42.676;23.320;2023-07-20T03:35:18;11.63;;;6.57;;
38399;SDS011;24180;42.676;23.320;2023-07-20T03:37:44;9.05;;;5.95;;
38399;SDS011;24180;42.676;23.320;2023-07-20T03:40:10;11.55;;;6.55;;
38399;SDS011;24180;42.676;23.320;2023-07-20T03:42:35;10.48;;;6.57;;
38399;SDS011;24180;42.676;23.320;2023-07-20T03:45:01;8.70;;;7.20;;
38399;SDS011;24180;42.676;23.320;2023-07-20T03:47:28;7.97;;;6.68;;
38399;SDS011;24180;42.676;23.320;2023-07-20T03:49:53;13.52;;;7.07;;
38399;SDS011;24180;42.676;23.320;2023-07-20T03:52:18;18.60;;;17.40;;
38399;SDS011;24180;42.676;23.320;2023-07-20T03:54:44;15.90;;;11.27;;
38399;SDS011;24180;42.676;23.320;2023-07-20T03:57:09;15.38;;;7.57;;
38399;SDS011;24180;42.676;23.320;2023-07-20T03:59:36;13.27;;;6.97;;
38399;SDS011;24180;42.676;23.320;2023-07-20T04:02:02;12.07;;;7.10;;
38399;SDS011;24180;42.676;23.320;2023-07-20T04:04:30;13.10;;;9.50;;
38399;SDS011;24180;42.676;23.320;2023-07-20T04:06:56;13.38;;;11.13;;
38399;SDS011;24180;42.676;23.320;2023-07-20T04:09:22;15.73;;;12.47;;
38399;SDS011;24180;42.676;23.320;2023-07-20T04:11:47;9.50;;;8.57;;
38399;SDS011;24180;42.676;23.320;2023-07-20T04:14:12;11.43;;;7.37;;
38399;SDS011;24180;42.676;23.320;2023-07-20T04:16:38;11.93;;;7.90;;
38399;SDS011;24180;42.676;23.320;2023-07-20T04:19:03;14.73;;;7.55;;
38399;SDS011;24180;42.676;23.320;2023-07-20T04:21:29;9.35;;;7.40;;
38399;SDS011;24180;42.676;23.320;2023-07-20T04:23:54;9.52;;;6.95;;
38399;SDS011;24180;42.676;23.320;2023-07-20T04:26:20;9.30;;;6.10;;
38399;SDS011;24180;42.676;23.320;2023-07-20T04:28:45;6.95;;;6.10;;
38399;SDS011;24180;42.676;23.320;2023-07-20T04:31:14;10.85;;;9.73;;
38399;SDS011;24180;42.676;23.320;2023-07-20T04:33:41;12.55;;;8.25;;
38399;SDS011;24180;42.676;23.320;2023-07-20T04:36:06;12.30;;;7.07;;
38399;SDS011;24180;42.676;23.320;2023-07-20T04:38:32;11.82;;;6.85;;
38399;SDS011;24180;42.676;23.320;2023-07-20T04:40:58;10.00;;;6.93;;
38399;SDS011;24180;42.676;23.320;2023-07-20T04:43:23;6.73;;;4.77;;
38399;SDS011;24180;42.676;23.320;2023-07-20T04:45:49;12.53;;;7.90;;
38399;SDS011;24180;42.676;23.320;2023-07-20T04:48:15;12.45;;;8.73;;
38399;SDS011;24180;42.676;23.320;2023-07-20T04:50:42;9.18;;;8.27;;
38399;SDS011;24180;42.676;23.320;2023-07-20T04:53:09;11.80;;;7.25;;
38399;SDS011;24180;42.676;23.320;2023-07-20T04:55:35;10.32;;;6.65;;
38399;SDS011;24180;42.676;23.320;2023-07-20T04:58:02;9.43;;;6.28;;
38399;SDS011;24180;42.676;23.320;2023-07-20T05:00:32;8.82;;;5.65;;
38399;SDS011;24180;42.676;23.320;2023-07-20T05:02:58;11.13;;;4.97;;
38399;SDS011;24180;42.676;23.320;2023-07-20T05:05:24;8.57;;;7.85;;
38399;SDS011;24180;42.676;23.320;2023-07-20T05:07:49;11.80;;;7.05;;
38399;SDS011;24180;42.676;23.320;2023-07-20T05:10:15;11.90;;;8.32;;
38399;SDS011;24180;42.676;23.320;2023-07-20T05:12:41;12.38;;;10.10;;
38399;SDS011;24180;42.676;23.320;2023-07-20T05:15:06;15.18;;;13.85;;
38399;SDS011;24180;42.676;23.320;2023-07-20T05:17:32;14.77;;;13.68;;
38399;SDS011;24180;42.676;23.320;2023-07-20T05:19:58;13.07;;;10.48;;
38399;SDS011;24180;42.676;23.320;2023-07-20T05:22:23;7.78;;;6.53;;
38399;SDS011;24180;42.676;23.320;2023-07-20T05:24:49;16.67;;;6.15;;
38399;SDS011;24180;42.676;23.320;2023-07-20T05:27:15;12.68;;;5.97;;
38399;SDS011;24180;42.676;23.320;2023-07-20T05:29:44;6.60;;;5.10;;
38399;SDS011;24180;42.676;23.320;2023-07-20T05:32:10;7.60;;;5.28;;
38399;SDS011;24180;42.676;23.320;2023-07-20T05:34:35;9.65;;;5.78;;
38399;SDS011;24180;42.676;23.320;2023-07-20T05:37:10;9.20;;;6.15;;
38399;SDS011;24180;42.676;23.320;2023-07-20T05:39:35;15.93;;;5.93;;
38399;SDS011;24180;42.676;23.320;2023-07-20T05:42:01;6.82;;;4.72;;
38399;SDS011;24180;42.676;23.320;2023-07-20T05:44:26;10.88;;;5.65;;
38399;SDS011;24180;42.676;23.320;2023-07-20T05:46:52;8.27;;;5.65;;
38399;SDS011;24180;42.676;23.320;2023-07-20T05:49:17;13.65;;;6.00;;
38399;SDS011;24180;42.676;23.320;2023-07-20T05:51:42;9.95;;;8.07;;
38399;SDS011;24180;42.676;23.320;2023-07-20T05:54:08;11.32;;;7.30;;
38399;SDS011;24180;42.676;23.320;2023-07-20T05:56:33;12.93;;;6.15;;
38399;SDS011;24180;42.676;23.320;2023-07-20T05:58:59;9.32;;;5.88;;
38399;SDS011;24180;42.676;23.320;2023-07-20T06:01:24;8.93;;;5.90;;
38399;SDS011;24180;42.676;23.320;2023-07-20T06:03:52;10.57;;;6.53;;
38399;SDS011;24180;42.676;23.320;2023-07-20T06:06:18;9.02;;;6.10;;
38399;SDS011;24180;42.676;23.320;2023-07-20T06:08:43;11.77;;;6.32;;
38399;SDS011;24180;42.676;23.320;2023-07-20T06:11:09;8.98;;;5.43;;
38399;SDS011;24180;42.676;23.320;2023-07-20T06:13:35;12.30;;;7.78;;
38399;SDS011;24180;42.676;23.320;2023-07-20T06:16:00;7.95;;;7.15;;
38399;SDS011;24180;42.676;23.320;2023-07-20T06:18:26;12.63;;;6.57;;
38399;SDS011;24180;42.676;23.320;2023-07-20T06:20:52;10.43;;;6.60;;
38399;SDS011;24180;42.676;23.320;2023-07-20T06:23:18;16.33;;;12.27;;
38399;SDS011;24180;42.676;23.320;2023-07-20T06:25:44;11.18;;;9.50;;
38399;SDS011;24180;42.676;23.320;2023-07-20T06:28:10;11.73;;;9.85;;
38399;SDS011;24180;42.676;23.320;2023-07-20T06:30:36;8.05;;;5.15;;
38399;SDS011;24180;42.676;23.320;2023-07-20T06:33:01;9.30;;;6.53;;
38399;SDS011;24180;42.676;23.320;2023-07-20T06:35:26;12.73;;;6.38;;
38399;SDS011;24180;42.676;23.320;2023-07-20T06:37:52;15.95;;;6.55;;
38399;SDS011;24180;42.676;23.320;2023-07-20T06:40:17;12.73;;;6.93;;
38399;SDS011;24180;42.676;23.320;2023-07-20T06:42:43;11.95;;;6.13;;
38399;SDS011;24180;42.676;23.320;2023-07-20T06:45:09;9.73;;;6.47;;
38399;SDS011;24180;42.676;23.320;2023-07-20T06:47:34;13.93;;;6.43;;
38399;SDS011;24180;42.676;23.320;2023-07-20T06:50:00;19.08;;;6.88;;
38399;SDS011;24180;42.676;23.320;2023-07-20T06:52:25;7.75;;;5.93;;
38399;SDS011;24180;42.676;23.320;2023-07-20T06:54:51;11.35;;;7.00;;
38399;SDS011;24180;42.676;23.320;2023-07-20T06:57:16;12.77;;;7.45;;
38399;SDS011;24180;42.676;23.320;2023-07-20T06:59:42;12.75;;;6.72;;
38399;SDS011;24180;42.676;23.320;2023-07-20T07:02:07;14.10;;;6.65;;
38399;SDS011;24180;42.676;23.320;2023-07-20T07:04:33;12.27;;;6.28;;
38399;SDS011;24180;42.676;23.320;2023-07-20T07:06:59;17.38;;;6.68;;
38399;SDS011;24180;42.676;23.320;2023-07-20T07:09:25;13.65;;;6.50;;
38399;SDS011;24180;42.676;23.320;2023-07-20T07:11:50;16.55;;;7.03;;
38399;SDS011;24180;42.676;23.320;2023-07-20T07:14:16;17.63;;;6.72;;
38399;SDS011;24180;42.676;23.320;2023-07-20T07:16:41;15.45;;;6.90;;
38399;SDS011;24180;42.676;23.320;2023-07-20T07:19:07;14.02;;;6.82;;
38399;SDS011;24180;42.676;23.320;2023-07-20T07:21:33;12.70;;;7.68;;
38399;SDS011;24180;42.676;23.320;2023-07-20T07:23:58;11.48;;;6.30;;
38399;SDS011;24180;42.676;23.320;2023-07-20T07:26:25;9.73;;;6.75;;
38399;SDS011;24180;42.676;23.320;2023-07-20T07:28:50;17.45;;;6.50;;
38399;SDS011;24180;42.676;23.320;2023-07-20T07:31:16;10.43;;;6.57;;
38399;SDS011;24180;42.676;23.320;2023-07-20T07:33:41;11.77;;;6.80;;
38399;SDS011;24180;42.676;23.320;2023-07-20T07:36:07;12.43;;;7.95;;
38399;SDS011;24180;42.676;23.320;2023-07-20T07:38:32;14.38;;;7.05;;
38399;SDS011;24180;42.676;23.320;2023-07-20T07:40:58;11.18;;;6.85;;
38399;SDS011;24180;42.676;23.320;2023-07-20T07:43:24;20.88;;;8.10;;
38399;SDS011;24180;42.676;23.320;2023-07-20T07:45:49;11.25;;;6.30;;
38399;SDS011;24180;42.676;23.320;2023-07-20T07:48:15;14.63;;;6.65;;
38399;SDS011;24180;42.676;23.320;2023-07-20T07:50:40;11.18;;;6.28;;
38399;SDS011;24180;42.676;23.320;2023-07-20T07:53:07;11.57;;;5.60;;
38399;SDS011;24180;42.676;23.320;2023-07-20T07:55:33;13.88;;;6.10;;
38399;SDS011;24180;42.676;23.320;2023-07-20T07:57:59;11.80;;;5.75;;
38399;SDS011;24180;42.676;23.320;2023-07-20T08:00:24;10.02;;;5.50;;
38399;SDS011;24180;42.676;23.320;2023-07-20T08:02:51;15.73;;;6.55;;
38399;SDS011;24180;42.676;23.320;2023-07-20T08:05:16;11.07;;;5.88;;
38399;SDS011;24180;42.676;23.320;2023-07-20T08:07:42;12.93;;;7.05;;
38399;SDS011;24180;42.676;23.320;2023-07-20T08:10:08;10.15;;;5.80;;
38399;SDS011;24180;42.676;23.320;2023-07-20T08:12:33;11.02;;;6.75;;
38399;SDS011;24180;42.676;23.320;2023-07-20T08:14:59;9.55;;;5.80;;
38399;SDS011;24180;42.676;23.320;2023-07-20T08:17:25;9.15;;;6.13;;
38399;SDS011;24180;42.676;23.320;2023-07-20T08:19:50;15.98;;;13.13;;
38399;SDS011;24180;42.676;23.320;2023-07-20T08:22:16;8.88;;;6.50;;
38399;SDS011;24180;42.676;23.320;2023-07-20T08:24:41;15.10;;;6.28;;
38399;SDS011;24180;42.676;23.320;2023-07-20T08:27:07;16.20;;;4.97;;
38399;SDS011;24180;42.676;23.320;2023-07-20T08:29:33;12.30;;;5.88;;
38399;SDS011;24180;42.676;23.320;2023-07-20T08:31:59;8.02;;;4.82;;
38399;SDS011;24180;42.676;23.320;2023-07-20T08:34:25;7.32;;;4.65;;
38399;SDS011;24180;42.676;23.320;2023-07-20T08:36:50;5.50;;;4.07;;
38399;SDS011;24180;42.676;23.320;2023-07-20T08:39:15;8.50;;;5.00;;
38399;SDS011;24180;42.676;23.320;2023-07-20T08:41:42;8.88;;;5.35;;
38399;SDS011;24180;42.676;23.320;2023-07-20T08:44:08;10.32;;;4.70;;
38399;SDS011;24180;42.676;23.320;2023-07-20T08:46:35;9.60;;;4.63;;
38399;SDS011;24180;42.676;23.320;2023-07-20T08:49:03;8.27;;;4.55;;
38399;SDS011;24180;42.676;23.320;2023-07-20T08:51:29;7.32;;;4.20;;
38399;SDS011;24180;42.676;23.320;2023-07-20T08:53:55;9.50;;;4.00;;
38399;SDS011;24180;42.676;23.320;2023-07-20T08:56:21;11.18;;;4.35;;
38399;SDS011;24180;42.676;23.320;2023-07-20T08:58:51;9.93;;;5.03;;
38399;SDS011;24180;42.676;23.320;2023-07-20T09:01:19;7.68;;;4.28;;
38399;SDS011;24180;42.676;23.320;2023-07-20T09:03:45;13.48;;;4.68;;
38399;SDS011;24180;42.676;23.320;2023-07-20T09:06:11;14.27;;;4.88;;
38399;SDS011;24180;42.676;23.320;2023-07-20T09:08:40;7.70;;;3.88;;
38399;SDS011;24180;42.676;23.320;2023-07-20T09:11:06;6.80;;;4.18;;
38399;SDS011;24180;42.676;23.320;2023-07-20T09:13:35;11.73;;;4.70;;
38399;SDS011;24180;42.676;23.320;2023-07-20T09:16:00;7.82;;;4.30;;
38399;SDS011;24180;42.676;23.320;2023-07-20T09:18:29;11.07;;;4.70;;
38399;SDS011;24180;42.676;23.320;2023-07-20T09:21:03;11.15;;;5.18;;
38399;SDS011;24180;42.676;23.320;2023-07-20T09:23:32;9.82;;;4.10;;
38399;SDS011;24180;42.676;23.320;2023-07-20T09:25:58;7.28;;;4.30;;
38399;SDS011;24180;42.676;23.320;2023-07-20T09:28:23;7.22;;;3.85;;
38399;SDS011;24180;42.676;23.320;2023-07-20T09:30:49;4.95;;;3.63;;
38399;SDS011;24180;42.676;23.320;2023-07-20T09:33:21;6.43;;;3.90;;
38399;SDS011;24180;42.676;23.320;2023-07-20T09:35:47;7.07;;;4.40;;
38399;SDS011;24180;42.676;23.320;2023-07-20T09:38:13;6.55;;;4.35;;
38399;SDS011;24180;42.676;23.320;2023-07-20T09:40:39;7.53;;;3.85;;
38399;SDS011;24180;42.676;23.320;2023-07-20T09:43:07;9.48;;;3.80;;
38399;SDS011;24180;42.676;23.320;2023-07-20T09:45:34;6.95;;;4.30;;
38399;SDS011;24180;42.676;23.320;2023-07-20T09:48:09;6.40;;;3.45;;
38399;SDS011;24180;42.676;23.320;2023-07-20T09:50:42;7.50;;;3.63;;
38399;SDS011;24180;42.676;23.320;2023-07-20T09:53:11;4.90;;;3.85;;
38399;SDS011;24180;42.676;23.320;2023-07-20T09:55:39;7.20;;;3.97;;
38399;SDS011;24180;42.676;23.320;2023-07-20T09:58:06;5.82;;;4.00;;
38399;SDS011;24180;42.676;23.320;2023-07-20T10:00:34;11.10;;;4.20;;
38399;SDS011;24180;42.676;23.320;2023-07-20T10:03:03;5.20;;;3.90;;
38399;SDS011;24180;42.676;23.320;2023-07-20T10:05:31;7.13;;;3.97;;
38399;SDS011;24180;42.676;23.320;2023-07-20T10:08:00;9.50;;;5.20;;
38399;SDS011;24180;42.676;23.320;2023-07-20T10:10:27;8.45;;;3.85;;
38399;SDS011;24180;42.676;23.320;2023-07-20T10:12:54;7.03;;;4.53;;
38399;SDS011;24180;42.676;23.320;2023-07-20T10:15:40;6.80;;;4.88;;
38399;SDS011;24180;42.676;23.320;2023-07-20T10:18:28;5.80;;;4.13;;
38399;SDS011;24180;42.676;23.320;2023-07-20T10:20:55;8.23;;;3.50;;
38399;SDS011;24180;42.676;23.320;2023-07-20T10:23:24;7.70;;;4.88;;
38399;SDS011;24180;42.676;23.320;2023-07-20T10:25:51;12.52;;;5.05;;
38399;SDS011;24180;42.676;23.320;2023-07-20T10:28:17;5.07;;;3.53;;
38399;SDS011;24180;42.676;23.320;2023-07-20T10:30:43;8.43;;;5.65;;
38399;SDS011;24180;42.676;23.320;2023-07-20T10:33:09;7.25;;;5.78;;
38399;SDS011;24180;42.676;23.320;2023-07-20T10:35:51;7.43;;;6.05;;
38399;SDS011;24180;42.676;23.320;2023-07-20T10:38:18;10.43;;;6.40;;
38399;SDS011;24180;42.676;23.320;2023-07-20T10:40:44;7.93;;;4.07;;
38399;SDS011;24180;42.676;23.320;2023-07-20T10:43:19;6.43;;;5.82;;
38399;SDS011;24180;42.676;23.320;2023-07-20T10:45:48;14.02;;;4.18;;
38399;SDS011;24180;42.676;23.320;2023-07-20T10:48:16;7.60;;;4.80;;
38399;SDS011;24180;42.676;23.320;2023-07-20T10:50:44;10.73;;;7.75;;
38399;SDS011;24180;42.676;23.320;2023-07-20T10:53:16;6.82;;;3.97;;
38399;SDS011;24180;42.676;23.320;2023-07-20T10:55:44;7.47;;;5.03;;
38399;SDS011;24180;42.676;23.320;2023-07-20T10:58:11;7.90;;;4.72;;
38399;SDS011;24180;42.676;23.320;2023-07-20T11:00:58;10.85;;;6.72;;
38399;SDS011;24180;42.676;23.320;2023-07-20T11:03:32;8.30;;;7.60;;
38399;SDS011;24180;42.676;23.320;2023-07-20T11:08:49;9.95;;;6.38;;
38399;SDS011;24180;42.676;23.320;2023-07-20T11:11:24;6.20;;;3.58;;
38399;SDS011;24180;42.676;23.320;2023-07-20T11:13:57;12.65;;;5.40;;
38399;SDS011;24180;42.676;23.320;2023-07-20T11:16:40;4.55;;;4.05;;
38399;SDS011;24180;42.676;23.320;2023-07-20T11:19:13;8.05;;;4.68;;
38399;SDS011;24180;42.676;23.320;2023-07-20T11:21:42;7.13;;;3.95;;
38399;SDS011;24180;42.676;23.320;2023-07-20T11:24:09;7.20;;;4.43;;
38399;SDS011;24180;42.676;23.320;2023-07-20T11:27:08;5.65;;;3.90;;
38399;SDS011;24180;42.676;23.320;2023-07-20T11:29:27;7.47;;;4.18;;
38399;SDS011;24180;42.676;23.320;2023-07-20T11:31:52;7.93;;;4.38;;
38399;SDS011;24180;42.676;23.320;2023-07-20T11:34:18;7.22;;;5.00;;
38399;SDS011;24180;42.676;23.320;2023-07-20T11:36:49;6.20;;;4.28;;
38399;SDS011;24180;42.676;23.320;2023-07-20T11:39:18;6.57;;;4.93;;
38399;SDS011;24180;42.676;23.320;2023-07-20T11:41:47;6.00;;;5.40;;
38399;SDS011;24180;42.676;23.320;2023-07-20T11:44:17;6.45;;;4.20;;
38399;SDS011;24180;42.676;23.320;2023-07-20T11:46:44;8.05;;;3.97;;
38399;SDS011;24180;42.676;23.320;2023-07-20T11:49:11;9.60;;;4.50;;
38399;SDS011;24180;42.676;23.320;2023-07-20T11:51:37;7.47;;;6.78;;
38399;SDS011;24180;42.676;23.320;2023-07-20T11:54:05;7.20;;;3.92;;
38399;SDS011;24180;42.676;23.320;2023-07-20T11:56:32;10.88;;;6.18;;
38399;SDS011;24180;42.676;23.320;2023-07-20T11:58:58;7.95;;;4.57;;
38399;SDS011;24180;42.676;23.320;2023-07-20T12:01:25;5.85;;;4.22;;
38399;SDS011;24180;42.676;23.320;2023-07-20T12:03:56;7.68;;;4.60;;
38399;SDS011;24180;42.676;23.320;2023-07-20T12:06:24;10.18;;;4.65;;
38399;SDS011;24180;42.676;23.320;2023-07-20T12:08:50;7.82;;;4.22;;
38399;SDS011;24180;42.676;23.320;2023-07-20T12:11:30;6.43;;;4.40;;
38399;SDS011;24180;42.676;23.320;2023-07-20T12:14:07;7.63;;;6.50;;
38399;SDS011;24180;42.676;23.320;2023-07-20T12:16:34;6.50;;;4.55;;
38399;SDS011;24180;42.676;23.320;2023-07-20T12:19:08;6.53;;;4.63;;
38399;SDS011;24180;42.676;23.320;2023-07-20T12:21:35;7.45;;;6.28;;
38399;SDS011;24180;42.676;23.320;2023-07-20T12:24:02;9.75;;;4.40;;
38399;SDS011;24180;42.676;23.320;2023-07-20T12:26:28;4.93;;;3.95;;
38399;SDS011;24180;42.676;23.320;2023-07-20T12:28:54;6.05;;;4.40;;
38399;SDS011;24180;42.676;23.320;2023-07-20T12:31:20;5.93;;;4.13;;
38399;SDS011;24180;42.676;23.320;2023-07-20T12:33:47;5.22;;;4.18;;
38399;SDS011;24180;42.676;23.320;2023-07-20T12:36:13;7.03;;;5.93;;
38399;SDS011;24180;42.676;23.320;2023-07-20T12:38:38;9.02;;;4.45;;
38399;SDS011;24180;42.676;23.320;2023-07-20T12:41:04;7.68;;;4.65;;
38399;SDS011;24180;42.676;23.320;2023-07-20T12:43:29;10.02;;;4.20;;
38399;SDS011;24180;42.676;23.320;2023-07-20T12:45:55;8.05;;;3.97;;
38399;SDS011;24180;42.676;23.320;2023-07-20T12:48:21;6.93;;;4.03;;
38399;SDS011;24180;42.676;23.320;2023-07-20T12:50:46;20.85;;;6.35;;
38399;SDS011;24180;42.676;23.320;2023-07-20T12:53:12;6.97;;;4.55;;
38399;SDS011;24180;42.676;23.320;2023-07-20T12:55:38;8.65;;;4.13;;
38399;SDS011;24180;42.676;23.320;2023-07-20T12:58:06;9.45;;;4.95;;
38399;SDS011;24180;42.676;23.320;2023-07-20T13:00:32;9.43;;;5.03;;
38399;SDS011;24180;42.676;23.320;2023-07-20T13:02:58;7.20;;;4.43;;
38399;SDS011;24180;42.676;23.320;2023-07-20T13:05:23;6.53;;;4.28;;
38399;SDS011;24180;42.676;23.320;2023-07-20T13:07:49;7.28;;;6.57;;
38399;SDS011;24180;42.676;23.320;2023-07-20T13:10:15;8.60;;;4.78;;
38399;SDS011;24180;42.676;23.320;2023-07-20T13:12:40;6.43;;;5.05;;
38399;SDS011;24180;42.676;23.320;2023-07-20T13:15:06;9.18;;;5.88;;
38399;SDS011;24180;42.676;23.320;2023-07-20T13:17:38;5.90;;;4.78;;
38399;SDS011;24180;42.676;23.320;2023-07-20T13:20:04;8.10;;;4.95;;
38399;SDS011;24180;42.676;23.320;2023-07-20T13:22:32;6.50;;;4.50;;
38399;SDS011;24180;42.676;23.320;2023-07-20T13:24:58;6.68;;;4.47;;
38399;SDS011;24180;42.676;23.320;2023-07-20T13:27:23;5.88;;;4.10;;
38399;SDS011;24180;42.676;23.320;2023-07-20T13:29:50;10.80;;;5.22;;
38399;SDS011;24180;42.676;23.320;2023-07-20T13:32:16;10.30;;;4.93;;
38399;SDS011;24180;42.676;23.320;2023-07-20T13:34:43;5.22;;;4.70;;
38399;SDS011;24180;42.676;23.320;2023-07-20T13:37:09;6.78;;;4.20;;
38399;SDS011;24180;42.676;23.320;2023-07-20T13:39:35;7.35;;;5.28;;
38399;SDS011;24180;42.676;23.320;2023-07-20T13:42:01;6.10;;;4.78;;
38399;SDS011;24180;42.676;23.320;2023-07-20T13:44:30;11.68;;;4.13;;
38399;SDS011;24180;42.676;23.320;2023-07-20T13:46:59;7.00;;;4.40;;
38399;SDS011;24180;42.676;23.320;2023-07-20T13:49:25;8.30;;;4.85;;
38399;SDS011;24180;42.676;23.320;2023-07-20T13:51:50;7.15;;;4.53;;
38399;SDS011;24180;42.676;23.320;2023-07-20T13:54:15;10.48;;;5.00;;
38399;SDS011;24180;42.676;23.320;2023-07-20T13:56:41;11.55;;;4.55;;
38399;SDS011;24180;42.676;23.320;2023-07-20T13:59:06;8.15;;;4.50;;
38399;SDS011;24180;42.676;23.320;2023-07-20T14:01:32;13.75;;;4.53;;
38399;SDS011;24180;42.676;23.320;2023-07-20T14:04:00;11.73;;;3.90;;
38399;SDS011;24180;42.676;23.320;2023-07-20T14:06:29;5.80;;;3.65;;
38399;SDS011;24180;42.676;23.320;2023-07-20T14:08:55;8.32;;;3.55;;
38399;SDS011;24180;42.676;23.320;2023-07-20T14:11:21;6.78;;;4.05;;
38399;SDS011;24180;42.676;23.320;2023-07-20T14:13:47;6.13;;;4.05;;
38399;SDS011;24180;42.676;23.320;2023-07-20T14:16:13;7.03;;;4.18;;
38399;SDS011;24180;42.676;23.320;2023-07-20T14:18:38;8.40;;;4.75;;
38399;SDS011;24180;42.676;23.320;2023-07-20T14:21:04;4.95;;;3.92;;
38399;SDS011;24180;42.676;23.320;2023-07-20T14:23:31;9.32;;;4.05;;
38399;SDS011;24180;42.676;23.320;2023-07-20T14:25:57;10.52;;;5.15;;
38399;SDS011;24180;42.676;23.320;2023-07-20T14:28:22;6.43;;;4.72;;
38399;SDS011;24180;42.676;23.320;2023-07-20T14:30:48;11.43;;;4.80;;
38399;SDS011;24180;42.676;23.320;2023-07-20T14:33:13;7.38;;;4.50;;
38399;SDS011;24180;42.676;23.320;2023-07-20T14:35:39;8.48;;;4.28;;
38399;SDS011;24180;42.676;23.320;2023-07-20T14:38:04;5.60;;;3.78;;
38399;SDS011;24180;42.676;23.320;2023-07-20T14:40:30;9.40;;;5.10;;
38399;SDS011;24180;42.676;23.320;2023-07-20T14:42:55;7.18;;;4.78;;
38399;SDS011;24180;42.676;23.320;2023-07-20T14:45:21;6.68;;;4.90;;